sensor_id;sensor_type;location;lat;lon;timestamp;pressure;altitude;pressure_sealevel;temperature;humidity
77770;BME280;66961;51.482;9.160;2023-05-17T00:01:36;99942.34;;;5.79;76.76
77770;BME280;66961;51.482;9.160;2023-05-17T00:04:02;99936.31;;;5.88;76.36
77770;BME280;66961;51.482;9.160;2023-05-17T00:06:27;99939.81;;;5.89;76.53
77770;BME280;66961;51.482;9.160;2023-05-17T00:08:52;99935.63;;;5.86;76.80
77770;BME280;66961;51.482;9.160;2023-05-17T00:11:17;99934.06;;;5.84;77.47
77770;BME280;66961;51.482;9.160;2023-05-17T00:13:43;99936.09;;;5.91;76.49
77770;BME280;66961;51.482;9.160;2023-05-17T00:16:08;99936.22;;;5.90;77.17
77770;BME280;66961;51.482;9.160;2023-05-17T00:18:33;99935.00;;;5.94;77.23
77770;BME280;66961;51.482;9.160;2023-05-17T00:20:58;99937.63;;;5.94;77.23
77770;BME280;66961;51.482;9.160;2023-05-17T00:23:24;99935.00;;;5.94;77.42
77770;BME280;66961;51.482;9.160;2023-05-17T00:25:49;99936.16;;;6.01;77.50
77770;BME280;66961;51.482;9.160;2023-05-17T00:28:14;99935.91;;;6.04;77.17
77770;BME280;66961;51.482;9.160;2023-05-17T00:30:40;99937.00;;;6.02;77.50
77770;BME280;66961;51.482;9.160;2023-05-17T00:33:05;99942.06;;;5.93;77.45
77770;BME280;66961;51.482;9.160;2023-05-17T00:35:30;99944.00;;;5.91;77.40
77770;BME280;66961;51.482;9.160;2023-05-17T00:37:55;99936.81;;;5.93;77.52
77770;BME280;66961;51.482;9.160;2023-05-17T00:40:21;99935.84;;;5.94;76.84
77770;BME280;66961;51.482;9.160;2023-05-17T00:42:46;99941.09;;;5.94;77.49
77770;BME280;66961;51.482;9.160;2023-05-17T00:45:11;99923.00;;;6.01;77.04
77770;BME280;66961;51.482;9.160;2023-05-17T00:47:37;99936.88;;;6.03;77.35
77770;BME280;66961;51.482;9.160;2023-05-17T00:50:03;99941.22;;;5.93;77.15
77770;BME280;66961;51.482;9.160;2023-05-17T00:52:29;99947.94;;;5.86;77.82
77770;BME280;66961;51.482;9.160;2023-05-17T00:54:54;99945.50;;;5.73;78.22
77770;BME280;66961;51.482;9.160;2023-05-17T00:57:19;99944.34;;;5.66;78.96
77770;BME280;66961;51.482;9.160;2023-05-17T00:59:46;99938.78;;;5.59;78.41
77770;BME280;66961;51.482;9.160;2023-05-17T01:02:11;99952.41;;;5.53;79.76
77770;BME280;66961;51.482;9.160;2023-05-17T01:04:37;99941.78;;;5.55;78.96
77770;BME280;66961;51.482;9.160;2023-05-17T01:07:02;99950.16;;;5.49;78.65
77770;BME280;66961;51.482;9.160;2023-05-17T01:09:28;99949.56;;;5.45;79.77
77770;BME280;66961;51.482;9.160;2023-05-17T01:15:02;99961.34;;;5.30;79.90
77770;BME280;66961;51.482;9.160;2023-05-17T01:20:35;99960.16;;;5.23;80.00
77770;BME280;66961;51.482;9.160;2023-05-17T01:23:16;99962.91;;;5.21;79.38
77770;BME280;66961;51.482;9.160;2023-05-17T01:26:06;99969.13;;;5.20;80.10
77770;BME280;66961;51.482;9.160;2023-05-17T01:28:37;99973.69;;;5.18;80.45
77770;BME280;66961;51.482;9.160;2023-05-17T01:31:03;99984.09;;;5.20;81.09
77770;BME280;66961;51.482;9.160;2023-05-17T01:33:30;99979.97;;;5.27;80.65
77770;BME280;66961;51.482;9.160;2023-05-17T01:35:55;99968.84;;;5.35;81.43
77770;BME280;66961;51.482;9.160;2023-05-17T01:38:20;99981.63;;;5.39;80.65
77770;BME280;66961;51.482;9.160;2023-05-17T01:40:51;99975.16;;;5.43;81.06
77770;BME280;66961;51.482;9.160;2023-05-17T01:43:30;99982.03;;;5.55;81.17
77770;BME280;66961;51.482;9.160;2023-05-17T01:48:35;99988.72;;;5.59;81.28
77770;BME280;66961;51.482;9.160;2023-05-17T01:51:03;99990.66;;;5.57;80.71
77770;BME280;66961;51.482;9.160;2023-05-17T01:53:32;99996.50;;;5.61;80.45
77770;BME280;66961;51.482;9.160;2023-05-17T01:56:15;99995.03;;;5.68;80.31
77770;BME280;66961;51.482;9.160;2023-05-17T01:58:47;99992.56;;;5.76;81.23
77770;BME280;66961;51.482;9.160;2023-05-17T02:01:17;99986.31;;;5.88;79.81
77770;BME280;66961;51.482;9.160;2023-05-17T02:03:43;99981.59;;;6.03;79.75
77770;BME280;66961;51.482;9.160;2023-05-17T02:06:08;99978.31;;;6.11;79.26
77770;BME280;66961;51.482;9.160;2023-05-17T02:08:33;99977.44;;;6.21;78.43
77770;BME280;66961;51.482;9.160;2023-05-17T02:10:58;99971.63;;;6.27;78.72
77770;BME280;66961;51.482;9.160;2023-05-17T02:13:24;99963.47;;;6.30;78.50
77770;BME280;66961;51.482;9.160;2023-05-17T02:15:49;99971.72;;;6.47;78.62
77770;BME280;66961;51.482;9.160;2023-05-17T02:18:14;99969.41;;;6.53;79.53
77770;BME280;66961;51.482;9.160;2023-05-17T02:20:39;99981.47;;;6.56;79.57
77770;BME280;66961;51.482;9.160;2023-05-17T02:23:05;99984.69;;;6.59;77.99
77770;BME280;66961;51.482;9.160;2023-05-17T02:25:30;99981.34;;;6.57;78.29
77770;BME280;66961;51.482;9.160;2023-05-17T02:27:55;99982.63;;;6.63;77.76
77770;BME280;66961;51.482;9.160;2023-05-17T02:30:20;99985.25;;;6.63;78.12
77770;BME280;66961;51.482;9.160;2023-05-17T02:32:46;99987.88;;;6.63;77.99
77770;BME280;66961;51.482;9.160;2023-05-17T02:35:12;99983.31;;;6.65;77.68
77770;BME280;66961;51.482;9.160;2023-05-17T02:37:37;99976.69;;;6.71;78.28
77770;BME280;66961;51.482;9.160;2023-05-17T02:40:03;99977.66;;;6.79;78.44
77770;BME280;66961;51.482;9.160;2023-05-17T02:42:29;99980.72;;;6.84;78.69
77770;BME280;66961;51.482;9.160;2023-05-17T02:44:54;99984.78;;;6.88;78.54
77770;BME280;66961;51.482;9.160;2023-05-17T02:47:19;99981.16;;;6.89;77.91
77770;BME280;66961;51.482;9.160;2023-05-17T02:49:45;99991.03;;;6.97;78.62
77770;BME280;66961;51.482;9.160;2023-05-17T02:52:10;99990.91;;;6.98;78.24
77770;BME280;66961;51.482;9.160;2023-05-17T02:54:35;99994.41;;;7.09;77.78
77770;BME280;66961;51.482;9.160;2023-05-17T02:57:00;100000.50;;;7.09;77.93
77770;BME280;66961;51.482;9.160;2023-05-17T02:59:26;99992.47;;;7.11;78.46
77770;BME280;66961;51.482;9.160;2023-05-17T03:01:51;100001.09;;;7.13;77.95
77770;BME280;66961;51.482;9.160;2023-05-17T03:04:16;100000.81;;;7.16;78.64
77770;BME280;66961;51.482;9.160;2023-05-17T03:06:42;100000.13;;;7.14;77.88
77770;BME280;66961;51.482;9.160;2023-05-17T03:09:07;99992.47;;;7.11;78.11
77770;BME280;66961;51.482;9.160;2023-05-17T03:11:32;99994.97;;;7.12;78.50
77770;BME280;66961;51.482;9.160;2023-05-17T03:13:57;100002.06;;;7.12;78.29
77770;BME280;66961;51.482;9.160;2023-05-17T03:16:23;99998.72;;;7.10;78.40
77770;BME280;66961;51.482;9.160;2023-05-17T03:18:48;99989.53;;;7.04;78.39
77770;BME280;66961;51.482;9.160;2023-05-17T03:21:14;100007.59;;;7.09;79.16
77770;BME280;66961;51.482;9.160;2023-05-17T03:23:39;100006.19;;;7.05;78.89
77770;BME280;66961;51.482;9.160;2023-05-17T03:26:04;100002.16;;;7.01;79.22
77770;BME280;66961;51.482;9.160;2023-05-17T03:28:29;99995.75;;;6.93;79.47
77770;BME280;66961;51.482;9.160;2023-05-17T03:30:55;100010.56;;;6.85;79.85
77770;BME280;66961;51.482;9.160;2023-05-17T03:33:20;100012.19;;;6.76;80.37
77770;BME280;66961;51.482;9.160;2023-05-17T03:35:45;100008.00;;;6.64;79.55
77770;BME280;66961;51.482;9.160;2023-05-17T03:38:11;100016.84;;;6.63;80.78
77770;BME280;66961;51.482;9.160;2023-05-17T03:40:36;100018.34;;;6.56;81.35
77770;BME280;66961;51.482;9.160;2023-05-17T03:43:02;100019.69;;;6.50;81.73
77770;BME280;66961;51.482;9.160;2023-05-17T03:45:27;100023.75;;;6.54;81.87
77770;BME280;66961;51.482;9.160;2023-05-17T03:47:52;100027.22;;;6.55;81.48
77770;BME280;66961;51.482;9.160;2023-05-17T03:50:18;100027.66;;;6.60;81.37
77770;BME280;66961;51.482;9.160;2023-05-17T03:52:43;100028.34;;;6.62;81.23
77770;BME280;66961;51.482;9.160;2023-05-17T03:55:08;100022.97;;;6.63;81.50
77770;BME280;66961;51.482;9.160;2023-05-17T03:57:33;100026.88;;;6.69;81.05
77770;BME280;66961;51.482;9.160;2023-05-17T03:59:59;100029.25;;;6.72;81.34
77770;BME280;66961;51.482;9.160;2023-05-17T04:02:24;100027.31;;;6.74;80.60
77770;BME280;66961;51.482;9.160;2023-05-17T04:04:50;100039.22;;;6.78;81.28
77770;BME280;66961;51.482;9.160;2023-05-17T04:07:16;100034.97;;;6.87;81.25
77770;BME280;66961;51.482;9.160;2023-05-17T04:09:41;100037.63;;;6.96;80.29
77770;BME280;66961;51.482;9.160;2023-05-17T04:12:06;100040.31;;;7.06;80.46
77770;BME280;66961;51.482;9.160;2023-05-17T04:14:32;100043.56;;;7.19;79.98
77770;BME280;66961;51.482;9.160;2023-05-17T04:16:57;100041.22;;;7.26;79.40
77770;BME280;66961;51.482;9.160;2023-05-17T04:19:22;100043.44;;;7.40;79.31
77770;BME280;66961;51.482;9.160;2023-05-17T04:21:47;100044.84;;;7.44;78.73
77770;BME280;66961;51.482;9.160;2023-05-17T04:24:13;100057.50;;;7.50;78.76
77770;BME280;66961;51.482;9.160;2023-05-17T04:26:38;100035.66;;;7.39;78.18
77770;BME280;66961;51.482;9.160;2023-05-17T04:29:03;100060.69;;;7.54;77.63
77770;BME280;66961;51.482;9.160;2023-05-17T04:31:30;100062.53;;;7.63;77.14
77770;BME280;66961;51.482;9.160;2023-05-17T04:33:55;100068.50;;;7.75;77.22
77770;BME280;66961;51.482;9.160;2023-05-17T04:36:20;100062.66;;;7.81;76.83
77770;BME280;66961;51.482;9.160;2023-05-17T04:38:46;100074.19;;;7.89;76.03
77770;BME280;66961;51.482;9.160;2023-05-17T04:41:11;100077.53;;;8.01;75.96
77770;BME280;66961;51.482;9.160;2023-05-17T04:43:36;100069.34;;;8.04;75.39
77770;BME280;66961;51.482;9.160;2023-05-17T04:46:01;100070.88;;;8.07;74.96
77770;BME280;66961;51.482;9.160;2023-05-17T04:48:30;100075.72;;;8.11;75.06
77770;BME280;66961;51.482;9.160;2023-05-17T04:50:59;100080.72;;;8.05;74.41
77770;BME280;66961;51.482;9.160;2023-05-17T04:53:24;100077.13;;;8.06;74.44
77770;BME280;66961;51.482;9.160;2023-05-17T04:55:50;100085.03;;;8.06;74.63
77770;BME280;66961;51.482;9.160;2023-05-17T04:58:15;100087.81;;;8.04;74.84
77770;BME280;66961;51.482;9.160;2023-05-17T05:00:40;100077.41;;;8.03;73.71
77770;BME280;66961;51.482;9.160;2023-05-17T05:03:05;100092.41;;;8.12;73.82
77770;BME280;66961;51.482;9.160;2023-05-17T05:05:31;100089.78;;;8.21;73.40
77770;BME280;66961;51.482;9.160;2023-05-17T05:07:56;100093.25;;;8.32;73.11
77770;BME280;66961;51.482;9.160;2023-05-17T05:10:21;100101.88;;;8.34;72.54
77770;BME280;66961;51.482;9.160;2023-05-17T05:12:47;100109.09;;;8.32;71.33
77770;BME280;66961;51.482;9.160;2023-05-17T05:15:12;100105.19;;;8.26;72.05
77770;BME280;66961;51.482;9.160;2023-05-17T05:17:37;100113.13;;;8.26;71.20
77770;BME280;66961;51.482;9.160;2023-05-17T05:20:03;100115.91;;;8.24;69.66
77770;BME280;66961;51.482;9.160;2023-05-17T05:22:28;100113.69;;;8.20;70.10
77770;BME280;66961;51.482;9.160;2023-05-17T05:24:54;100121.75;;;8.28;70.24
77770;BME280;66961;51.482;9.160;2023-05-17T05:27:20;100128.56;;;8.30;69.49
77770;BME280;66961;51.482;9.160;2023-05-17T05:29:45;100128.69;;;8.48;68.63
77770;BME280;66961;51.482;9.160;2023-05-17T05:32:10;100139.25;;;8.58;67.48
77770;BME280;66961;51.482;9.160;2023-05-17T05:34:37;100131.59;;;8.65;66.93
77770;BME280;66961;51.482;9.160;2023-05-17T05:37:02;100135.50;;;8.70;66.65
77770;BME280;66961;51.482;9.160;2023-05-17T05:39:27;100148.72;;;8.60;66.32
77770;BME280;66961;51.482;9.160;2023-05-17T05:41:53;100142.72;;;8.68;66.12
77770;BME280;66961;51.482;9.160;2023-05-17T05:44:18;100145.22;;;8.79;67.00
77770;BME280;66961;51.482;9.160;2023-05-17T05:46:43;100132.41;;;8.75;65.51
77770;BME280;66961;51.482;9.160;2023-05-17T05:49:09;100134.88;;;8.86;64.70
77770;BME280;66961;51.482;9.160;2023-05-17T05:51:34;100141.13;;;8.94;63.51
77770;BME280;66961;51.482;9.160;2023-05-17T05:53:59;100146.78;;;9.09;63.89
77770;BME280;66961;51.482;9.160;2023-05-17T05:56:25;100145.38;;;9.15;63.20
77770;BME280;66961;51.482;9.160;2023-05-17T05:58:50;100151.75;;;9.22;61.30
77770;BME280;66961;51.482;9.160;2023-05-17T06:01:15;100155.59;;;9.37;60.79
77770;BME280;66961;51.482;9.160;2023-05-17T06:03:40;100160.06;;;9.64;61.26
77770;BME280;66961;51.482;9.160;2023-05-17T06:06:06;100167.97;;;9.74;62.47
77770;BME280;66961;51.482;9.160;2023-05-17T06:08:31;100168.56;;;9.68;61.63
77770;BME280;66961;51.482;9.160;2023-05-17T06:10:56;100170.41;;;9.57;62.01
77770;BME280;66961;51.482;9.160;2023-05-17T06:13:21;100176.66;;;9.29;62.28
77770;BME280;66961;51.482;9.160;2023-05-17T06:15:47;100183.84;;;9.37;62.62
77770;BME280;66961;51.482;9.160;2023-05-17T06:18:12;100179.59;;;9.26;63.62
77770;BME280;66961;51.482;9.160;2023-05-17T06:20:37;100180.03;;;9.21;63.36
77770;BME280;66961;51.482;9.160;2023-05-17T06:23:03;100186.41;;;9.28;63.70
77770;BME280;66961;51.482;9.160;2023-05-17T06:25:28;100182.41;;;9.15;64.91
77770;BME280;66961;51.482;9.160;2023-05-17T06:27:53;100187.41;;;9.18;63.98
77770;BME280;66961;51.482;9.160;2023-05-17T06:30:18;100193.94;;;9.23;63.47
77770;BME280;66961;51.482;9.160;2023-05-17T06:32:44;100195.53;;;9.44;64.59
77770;BME280;66961;51.482;9.160;2023-05-17T06:35:09;100186.81;;;9.61;62.91
77770;BME280;66961;51.482;9.160;2023-05-17T06:37:35;100196.22;;;9.83;61.57
77770;BME280;66961;51.482;9.160;2023-05-17T06:40:01;100196.72;;;10.14;61.94
77770;BME280;66961;51.482;9.160;2023-05-17T06:42:27;100204.44;;;9.80;61.32
77770;BME280;66961;51.482;9.160;2023-05-17T06:44:52;100200.25;;;10.05;61.28
77770;BME280;66961;51.482;9.160;2023-05-17T06:47:17;100201.16;;;10.13;61.69
77770;BME280;66961;51.482;9.160;2023-05-17T06:49:43;100206.69;;;10.30;62.46
77770;BME280;66961;51.482;9.160;2023-05-17T06:52:08;100206.91;;;10.36;60.93
77770;BME280;66961;51.482;9.160;2023-05-17T06:54:33;100216.53;;;10.37;58.45
77770;BME280;66961;51.482;9.160;2023-05-17T06:57:00;100211.75;;;10.23;59.27
77770;BME280;66961;51.482;9.160;2023-05-17T06:59:26;100221.13;;;10.53;59.74
77770;BME280;66961;51.482;9.160;2023-05-17T07:01:52;100221.47;;;10.93;59.19
77770;BME280;66961;51.482;9.160;2023-05-17T07:04:17;100213.19;;;11.14;57.51
77770;BME280;66961;51.482;9.160;2023-05-17T07:06:42;100222.84;;;11.49;55.43
77770;BME280;66961;51.482;9.160;2023-05-17T07:09:08;100226.47;;;10.97;57.27
77770;BME280;66961;51.482;9.160;2023-05-17T07:11:33;100227.41;;;10.87;57.37
77770;BME280;66961;51.482;9.160;2023-05-17T07:13:58;100236.34;;;10.69;55.83
77770;BME280;66961;51.482;9.160;2023-05-17T07:16:23;100250.22;;;10.80;54.62
77770;BME280;66961;51.482;9.160;2023-05-17T07:18:49;100233.88;;;10.67;54.59
77770;BME280;66961;51.482;9.160;2023-05-17T07:21:14;100245.38;;;10.58;54.68
77770;BME280;66961;51.482;9.160;2023-05-17T07:23:39;100247.34;;;10.38;55.40
77770;BME280;66961;51.482;9.160;2023-05-17T07:26:05;100249.59;;;10.33;56.86
77770;BME280;66961;51.482;9.160;2023-05-17T07:28:30;100254.91;;;10.33;56.22
77770;BME280;66961;51.482;9.160;2023-05-17T07:30:55;100249.75;;;10.32;56.30
77770;BME280;66961;51.482;9.160;2023-05-17T07:33:20;100254.28;;;10.21;57.53
77770;BME280;66961;51.482;9.160;2023-05-17T07:35:46;100259.06;;;10.36;56.95
77770;BME280;66961;51.482;9.160;2023-05-17T07:38:11;100252.94;;;10.53;55.60
77770;BME280;66961;51.482;9.160;2023-05-17T07:40:36;100259.09;;;10.71;55.01
77770;BME280;66961;51.482;9.160;2023-05-17T07:43:01;100259.53;;;10.84;55.51
77770;BME280;66961;51.482;9.160;2023-05-17T07:45:27;100253.44;;;11.10;54.54
77770;BME280;66961;51.482;9.160;2023-05-17T07:47:52;100256.97;;;11.44;54.73
77770;BME280;66961;51.482;9.160;2023-05-17T07:50:17;100264.38;;;11.58;52.86
77770;BME280;66961;51.482;9.160;2023-05-17T07:52:43;100247.97;;;11.63;49.21
77770;BME280;66961;51.482;9.160;2023-05-17T07:55:08;100271.66;;;11.56;49.58
77770;BME280;66961;51.482;9.160;2023-05-17T07:57:34;100274.03;;;11.16;49.92
77770;BME280;66961;51.482;9.160;2023-05-17T07:59:59;100274.19;;;11.32;50.74
77770;BME280;66961;51.482;9.160;2023-05-17T08:02:24;100278.66;;;11.32;52.73
77770;BME280;66961;51.482;9.160;2023-05-17T08:04:49;100275.78;;;11.07;52.46
77770;BME280;66961;51.482;9.160;2023-05-17T08:07:15;100276.41;;;11.01;52.87
77770;BME280;66961;51.482;9.160;2023-05-17T08:09:40;100284.59;;;11.08;52.67
77770;BME280;66961;51.482;9.160;2023-05-17T08:12:05;100285.03;;;11.03;52.09
77770;BME280;66961;51.482;9.160;2023-05-17T08:14:30;100293.59;;;11.15;52.70
77770;BME280;66961;51.482;9.160;2023-05-17T08:16:56;100287.78;;;11.11;51.78
77770;BME280;66961;51.482;9.160;2023-05-17T08:19:21;100286.97;;;11.37;51.59
77770;BME280;66961;51.482;9.160;2023-05-17T08:21:46;100283.38;;;11.72;49.50
77770;BME280;66961;51.482;9.160;2023-05-17T08:24:12;100276.06;;;11.91;49.15
77770;BME280;66961;51.482;9.160;2023-05-17T08:26:37;100280.31;;;11.84;47.79
77770;BME280;66961;51.482;9.160;2023-05-17T08:29:03;100288.28;;;11.84;50.70
77770;BME280;66961;51.482;9.160;2023-05-17T08:31:29;100286.44;;;11.59;49.98
77770;BME280;66961;51.482;9.160;2023-05-17T08:33:54;100281.25;;;11.75;47.67
77770;BME280;66961;51.482;9.160;2023-05-17T08:36:20;100285.72;;;12.09;49.31
77770;BME280;66961;51.482;9.160;2023-05-17T08:38:45;100287.91;;;12.13;46.57
77770;BME280;66961;51.482;9.160;2023-05-17T08:41:11;100288.59;;;12.15;46.70
77770;BME280;66961;51.482;9.160;2023-05-17T08:43:37;100278.38;;;12.37;47.24
77770;BME280;66961;51.482;9.160;2023-05-17T08:46:03;100285.41;;;12.62;47.11
77770;BME280;66961;51.482;9.160;2023-05-17T08:48:28;100283.75;;;12.69;46.18
77770;BME280;66961;51.482;9.160;2023-05-17T08:50:54;100287.75;;;12.73;47.04
77770;BME280;66961;51.482;9.160;2023-05-17T08:53:20;100286.44;;;12.85;46.41
77770;BME280;66961;51.482;9.160;2023-05-17T08:55:48;100283.78;;;12.93;45.20
77770;BME280;66961;51.482;9.160;2023-05-17T08:58:24;100290.09;;;13.01;45.23
77770;BME280;66961;51.482;9.160;2023-05-17T09:00:51;100295.53;;;12.67;46.67
77770;BME280;66961;51.482;9.160;2023-05-17T09:03:18;100291.34;;;12.40;46.86
77770;BME280;66961;51.482;9.160;2023-05-17T09:05:46;100273.59;;;12.65;47.17
77770;BME280;66961;51.482;9.160;2023-05-17T09:08:11;100298.06;;;12.76;46.50
77770;BME280;66961;51.482;9.160;2023-05-17T09:10:36;100294.91;;;12.81;46.65
77770;BME280;66961;51.482;9.160;2023-05-17T09:13:01;100282.56;;;12.47;47.96
77770;BME280;66961;51.482;9.160;2023-05-17T09:15:27;100286.69;;;12.50;47.75
77770;BME280;66961;51.482;9.160;2023-05-17T09:17:53;100296.59;;;12.23;48.46
77770;BME280;66961;51.482;9.160;2023-05-17T09:20:26;100289.28;;;12.25;47.86
77770;BME280;66961;51.482;9.160;2023-05-17T09:22:52;100288.03;;;12.54;47.74
77770;BME280;66961;51.482;9.160;2023-05-17T09:25:22;100277.94;;;12.74;47.77
77770;BME280;66961;51.482;9.160;2023-05-17T09:27:51;100280.97;;;13.19;42.99
77770;BME280;66961;51.482;9.160;2023-05-17T09:30:16;100276.91;;;13.64;42.09
77770;BME280;66961;51.482;9.160;2023-05-17T09:32:48;100272.13;;;14.07;41.90
77770;BME280;66961;51.482;9.160;2023-05-17T09:35:13;100277.50;;;13.19;42.96
77770;BME280;66961;51.482;9.160;2023-05-17T09:37:41;100278.28;;;12.87;42.31
77770;BME280;66961;51.482;9.160;2023-05-17T09:40:07;100281.13;;;12.93;42.54
77770;BME280;66961;51.482;9.160;2023-05-17T09:42:33;100282.81;;;13.19;46.34
77770;BME280;66961;51.482;9.160;2023-05-17T09:44:59;100264.78;;;13.53;39.92
77770;BME280;66961;51.482;9.160;2023-05-17T09:47:26;100279.75;;;13.63;41.81
77770;BME280;66961;51.482;9.160;2023-05-17T09:49:52;100282.47;;;13.22;41.46
77770;BME280;66961;51.482;9.160;2023-05-17T09:52:19;100282.28;;;12.91;40.85
77770;BME280;66961;51.482;9.160;2023-05-17T09:54:55;100287.25;;;13.02;42.29
77770;BME280;66961;51.482;9.160;2023-05-17T09:57:20;100278.16;;;13.45;41.40
77770;BME280;66961;51.482;9.160;2023-05-17T09:59:46;100278.34;;;13.99;39.48
77770;BME280;66961;51.482;9.160;2023-05-17T10:02:19;100272.66;;;14.41;37.38
77770;BME280;66961;51.482;9.160;2023-05-17T10:04:45;100284.34;;;14.63;41.33
77770;BME280;66961;51.482;9.160;2023-05-17T10:07:12;100280.34;;;14.90;37.79
77770;BME280;66961;51.482;9.160;2023-05-17T10:09:39;100286.53;;;14.29;39.87
77770;BME280;66961;51.482;9.160;2023-05-17T10:12:05;100264.56;;;13.79;43.77
77770;BME280;66961;51.482;9.160;2023-05-17T10:14:33;100281.09;;;14.06;40.13
77770;BME280;66961;51.482;9.160;2023-05-17T10:17:00;100271.91;;;14.16;39.76
77770;BME280;66961;51.482;9.160;2023-05-17T10:19:26;100276.81;;;14.44;40.08
77770;BME280;66961;51.482;9.160;2023-05-17T10:21:52;100280.31;;;14.44;37.54
77770;BME280;66961;51.482;9.160;2023-05-17T10:24:19;100277.59;;;14.52;37.61
77770;BME280;66961;51.482;9.160;2023-05-17T10:26:45;100276.66;;;14.91;37.81
77770;BME280;66961;51.482;9.160;2023-05-17T10:29:11;100281.25;;;15.20;37.77
77770;BME280;66961;51.482;9.160;2023-05-17T10:31:36;100283.19;;;15.49;37.45
77770;BME280;66961;51.482;9.160;2023-05-17T10:34:03;100282.44;;;15.03;39.29
77770;BME280;66961;51.482;9.160;2023-05-17T10:36:29;100284.38;;;14.86;37.95
77770;BME280;66961;51.482;9.160;2023-05-17T10:38:54;100284.09;;;14.11;38.63
77770;BME280;66961;51.482;9.160;2023-05-17T10:41:21;100280.06;;;14.15;38.26
77770;BME280;66961;51.482;9.160;2023-05-17T10:43:47;100282.31;;;14.03;38.33
77770;BME280;66961;51.482;9.160;2023-05-17T10:46:18;100284.94;;;15.19;36.11
77770;BME280;66961;51.482;9.160;2023-05-17T10:48:44;100280.28;;;15.73;37.26
77770;BME280;66961;51.482;9.160;2023-05-17T10:51:11;100278.63;;;15.58;38.50
77770;BME280;66961;51.482;9.160;2023-05-17T10:54:09;100278.94;;;15.17;37.45
77770;BME280;66961;51.482;9.160;2023-05-17T10:56:38;100273.94;;;15.37;37.61
77770;BME280;66961;51.482;9.160;2023-05-17T11:06:54;100260.00;;;15.79;37.43
77770;BME280;66961;51.482;9.160;2023-05-17T11:09:39;100265.91;;;15.89;39.20
77770;BME280;66961;51.482;9.160;2023-05-17T11:12:07;100271.88;;;15.62;36.45
77770;BME280;66961;51.482;9.160;2023-05-17T11:14:42;100267.94;;;15.58;36.55
77770;BME280;66961;51.482;9.160;2023-05-17T11:17:14;100259.72;;;15.88;36.96
77770;BME280;66961;51.482;9.160;2023-05-17T11:22:16;100260.56;;;16.76;35.11
77770;BME280;66961;51.482;9.160;2023-05-17T11:24:43;100264.28;;;16.24;35.59
77770;BME280;66961;51.482;9.160;2023-05-17T11:27:08;100274.53;;;15.62;37.03
77770;BME280;66961;51.482;9.160;2023-05-17T11:29:34;100275.41;;;15.39;35.25
77770;BME280;66961;51.482;9.160;2023-05-17T11:32:08;100271.25;;;15.74;34.86
77770;BME280;66961;51.482;9.160;2023-05-17T11:34:34;100267.19;;;16.44;34.81
77770;BME280;66961;51.482;9.160;2023-05-17T11:36:59;100270.97;;;15.99;35.93
77770;BME280;66961;51.482;9.160;2023-05-17T11:39:25;100275.94;;;15.58;36.31
77770;BME280;66961;51.482;9.160;2023-05-17T11:41:51;100269.03;;;15.78;36.44
77770;BME280;66961;51.482;9.160;2023-05-17T11:44:28;100271.66;;;15.48;35.38
77770;BME280;66961;51.482;9.160;2023-05-17T11:47:01;100268.19;;;15.92;37.33
77770;BME280;66961;51.482;9.160;2023-05-17T11:49:27;100279.84;;;16.35;35.20
77770;BME280;66961;51.482;9.160;2023-05-17T11:51:54;100292.72;;;15.96;35.19
77770;BME280;66961;51.482;9.160;2023-05-17T11:54:23;100295.19;;;15.68;34.58
77770;BME280;66961;51.482;9.160;2023-05-17T11:56:49;100294.72;;;15.27;36.01
77770;BME280;66961;51.482;9.160;2023-05-17T11:59:20;100291.78;;;15.74;36.17
77770;BME280;66961;51.482;9.160;2023-05-17T12:01:47;100281.94;;;16.04;36.56
77770;BME280;66961;51.482;9.160;2023-05-17T12:04:13;100287.81;;;16.14;35.28
77770;BME280;66961;51.482;9.160;2023-05-17T12:06:46;100281.09;;;16.03;33.94
77770;BME280;66961;51.482;9.160;2023-05-17T12:09:14;100289.19;;;16.25;33.88
77770;BME280;66961;51.482;9.160;2023-05-17T12:11:40;100297.72;;;15.99;35.57
77770;BME280;66961;51.482;9.160;2023-05-17T12:14:05;100289.47;;;15.56;35.16
77770;BME280;66961;51.482;9.160;2023-05-17T12:16:31;100297.16;;;16.03;34.09
77770;BME280;66961;51.482;9.160;2023-05-17T12:18:58;100283.47;;;16.28;34.23
77770;BME280;66961;51.482;9.160;2023-05-17T12:21:24;100304.28;;;15.21;35.07
77770;BME280;66961;51.482;9.160;2023-05-17T12:23:50;100292.16;;;15.71;34.86
77770;BME280;66961;51.482;9.160;2023-05-17T12:26:20;100292.44;;;15.01;37.41
77770;BME280;66961;51.482;9.160;2023-05-17T12:28:54;100290.00;;;15.51;37.01
77770;BME280;66961;51.482;9.160;2023-05-17T12:31:25;100297.66;;;14.71;37.96
77770;BME280;66961;51.482;9.160;2023-05-17T12:33:51;100297.88;;;15.30;37.27
77770;BME280;66961;51.482;9.160;2023-05-17T12:36:17;100312.50;;;14.97;36.50
77770;BME280;66961;51.482;9.160;2023-05-17T12:38:43;100299.88;;;16.25;35.43
77770;BME280;66961;51.482;9.160;2023-05-17T12:41:10;100298.34;;;15.86;36.03
77770;BME280;66961;51.482;9.160;2023-05-17T12:43:37;100296.47;;;16.31;36.90
77770;BME280;66961;51.482;9.160;2023-05-17T12:46:05;100301.56;;;16.11;35.34
77770;BME280;66961;51.482;9.160;2023-05-17T12:48:41;100301.03;;;15.86;35.33
77770;BME280;66961;51.482;9.160;2023-05-17T12:53:39;100295.22;;;16.63;34.59
77770;BME280;66961;51.482;9.160;2023-05-17T12:56:05;100287.91;;;17.63;35.52
77770;BME280;66961;51.482;9.160;2023-05-17T12:58:30;100292.22;;;17.36;33.26
77770;BME280;66961;51.482;9.160;2023-05-17T13:01:00;100293.56;;;17.26;32.77
77770;BME280;66961;51.482;9.160;2023-05-17T13:03:26;100293.94;;;16.59;33.05
77770;BME280;66961;51.482;9.160;2023-05-17T13:06:17;100286.00;;;16.00;34.48
77770;BME280;66961;51.482;9.160;2023-05-17T13:08:43;100303.38;;;17.40;32.54
77770;BME280;66961;51.482;9.160;2023-05-17T13:11:12;100288.00;;;17.48;32.21
77770;BME280;66961;51.482;9.160;2023-05-17T13:13:38;100286.53;;;17.46;32.78
77770;BME280;66961;51.482;9.160;2023-05-17T13:16:04;100298.22;;;18.42;31.76